KAEX

Alexandria International Airport

Alexandria, Louisiana, USA
KAEX 192320Z 2000/2024 27005KT P6SM VCTS FEW050CB SCT250 FM200200 VRB03KT P6SM FEW250 FM200900 00000KT 4SM BR SKC FM201400 VRB04KT P6SM FEW040 FM201800 17007KT P6SM VCTS SCT050CB
Issued Valid From Valid To
Sep-19 @ 23:20 UTC
(an hour ago)
Sep-20 @ 00:00 UTC
(42 minutes ago)
Sep-21 @ 00:00 UTC
(in 23 hours)
Sep-20 @ 00:00 to Sep-20 @ 02:00
KAEX 192320Z 2000/2024 27005KT P6SM VCTS FEW050CB SCT250
Wind Visibility Clouds Conditions
270° at 5 knots Greater than 6 miles
  • Few at 5,000' AGL
  • Scattered at 25,000' AGL
  • Area Thunderstorm
From Sep-20 @ 02:00 to Sep-20 @ 09:00
FM200200 VRB03KT P6SM FEW250
Wind Visibility Clouds
Variable at 3 knots Greater than 6 miles
  • Few at 25,000' AGL
From Sep-20 @ 09:00 to Sep-20 @ 14:00
FM200900 00000KT 4SM BR SKC
Visibility Clouds Conditions
4 miles
  • Clear skies
  • Mist
From Sep-20 @ 14:00 to Sep-20 @ 18:00
FM201400 VRB04KT P6SM FEW040
Wind Visibility Clouds
Variable at 4 knots Greater than 6 miles
  • Few at 4,000' AGL
From Sep-20 @ 18:00 to Sep-21 @ 00:00
FM201800 17007KT P6SM VCTS SCT050CB
Wind Visibility Clouds Conditions
170° at 7 knots Greater than 6 miles
  • Scattered at 5,000' AGL
  • Area Thunderstorm
KAEX 192320Z 2000/2024 27005KT P6SM VCTS FEW050CB SCT250 FM200200 VRB03KT P6SM FEW250 FM200900 00000KT 4SM BR SKC FM201400 VRB04KT P6SM FEW040 FM201800 17007KT P6SM VCTS SCT050CB
Issued Sep-19 @ 23:20 UTC
(an hour ago)
Valid From Sep-20 @ 00:00 UTC
(42 minutes ago)
Valid To Sep-21 @ 00:00 UTC
(in 23 hours)
Sep-20 @ 00:00 - Sep-20 @ 02:00
Wind Visibility
270° at 5 knots Greater than 6 miles
Clouds
  • Few at 5,000' AGL
  • Scattered at 25,000' AGL
Conditions
  • Area Thunderstorm
From Sep-20 @ 02:00 - Sep-20 @ 09:00
Wind Visibility
Variable at 3 knots Greater than 6 miles
Clouds
  • Few at 25,000' AGL
From Sep-20 @ 09:00 - Sep-20 @ 14:00
Clouds
  • Clear skies
Conditions
  • Mist
From Sep-20 @ 14:00 - Sep-20 @ 18:00
Wind Visibility
Variable at 4 knots Greater than 6 miles
Clouds
  • Few at 4,000' AGL
From Sep-20 @ 18:00 - Sep-21 @ 00:00
Wind Visibility
170° at 7 knots Greater than 6 miles
Clouds
  • Scattered at 5,000' AGL
Conditions
  • Area Thunderstorm